Time;durP1;ratioP1;P1;durP2;ratioP2;P2;SDS_P1;SDS_P2;PMS_P1;PMS_P2;Temp;Humidity;BMP_temperature;BMP_pressure;BME280_temperature;BME280_humidity;BME280_pressure;Samples;Min_cycle;Max_cycle;Signal;HPM_P1;HPM_P2
2021/03/28 00:02:10;;;;;;;5.63;1.40;;;3.60;87.60;;;;;;4981603;28;20521;-94
2021/03/28 00:05:16;;;;;;;5.25;1.70;;;3.60;87.40;;;;;;4984266;28;20420;-95
2021/03/28 00:07:54;;;;;;;6.07;1.42;;;3.50;88.20;;;;;;4963264;28;20428;-90
2021/03/28 00:10:41;;;;;;;5.28;1.52;;;3.50;88.40;;;;;;4951424;28;20436;-93
2021/03/28 00:13:39;;;;;;;7.30;1.73;;;3.50;89.30;;;;;;4983051;28;20434;-93
2021/03/28 00:16:12;;;;;;;5.22;1.50;;;3.40;89.70;;;;;;4941683;29;20423;-96
2021/03/28 00:19:11;;;;;;;6.70;1.67;;;3.40;89.60;;;;;;4947309;29;20427;-96
2021/03/28 00:21:53;;;;;;;7.35;1.70;;;3.30;89.90;;;;;;4943450;29;20430;-90
2021/03/28 00:24:48;;;;;;;7.22;1.70;;;3.30;90.10;;;;;;4929941;29;20959;-92
2021/03/28 00:27:27;;;;;;;7.85;1.63;;;3.20;90.20;;;;;;4929678;29;20872;-96
2021/03/28 00:30:19;;;;;;;5.90;1.58;;;3.10;90.90;;;;;;4905586;29;20495;-94
2021/03/28 00:32:56;;;;;;;6.38;1.65;;;3.00;90.90;;;;;;4890321;29;20477;-93
2021/03/28 00:35:56;;;;;;;8.70;1.52;;;2.90;91.30;;;;;;4891326;29;20451;-91
2021/03/28 00:38:41;;;;;;;9.98;1.73;;;3.00;91.40;;;;;;4890608;29;20453;-92
2021/03/28 00:41:19;;;;;;;6.18;1.40;;;3.00;91.30;;;;;;4890869;29;20419;-93
2021/03/28 00:44:24;;;;;;;7.65;1.40;;;3.00;91.40;;;;;;4907663;29;20437;-92
2021/03/28 00:46:50;;;;;;;6.75;1.42;;;2.90;91.60;;;;;;4869954;29;20456;-93
2021/03/28 00:49:33;;;;;;;5.25;1.70;;;2.80;91.80;;;;;;4889073;29;20444;-91
2021/03/28 00:52:27;;;;;;;8.25;1.85;;;2.90;92.20;;;;;;4875606;29;20437;-96
2021/03/28 00:55:11;;;;;;;5.55;1.73;;;2.80;92.10;;;;;;4908441;29;20427;-92
2021/03/28 00:57:47;;;;;;;6.43;1.60;;;2.80;92.30;;;;;;4904543;29;20434;-95
2021/03/28 01:00:56;;;;;;;9.02;1.60;;;2.70;92.50;;;;;;4907089;29;20431;-93
2021/03/28 01:03:56;;;;;;;5.10;1.48;;;2.60;92.80;;;;;;4890102;29;20457;-96
2021/03/28 01:06:54;;;;;;;8.50;2.00;;;2.70;93.00;;;;;;4909058;29;20546;-91
2021/03/28 01:09:53;;;;;;;6.05;2.00;;;2.70;93.10;;;;;;4948539;29;20437;-94
2021/03/28 01:12:43;;;;;;;9.32;1.70;;;2.80;93.10;;;;;;4944941;29;20577;-94
2021/03/28 01:15:44;;;;;;;7.85;2.00;;;2.70;93.10;;;;;;4944883;29;20426;-93
2021/03/28 01:18:48;;;;;;;5.82;1.92;;;2.80;93.40;;;;;;4948494;29;20437;-93
2021/03/28 01:22:01;;;;;;;7.37;1.90;;;2.80;93.10;;;;;;4949500;28;20481;-95
2021/03/28 01:24:57;;;;;;;7.43;1.70;;;2.70;93.40;;;;;;4960297;28;20441;-95
2021/03/28 01:27:31;;;;;;;7.72;2.00;;;2.70;93.50;;;;;;5003378;28;20431;-92
2021/03/28 01:30:14;;;;;;;7.82;1.92;;;2.60;93.90;;;;;;4988749;28;20458;-92
2021/03/28 01:32:48;;;;;;;11.07;2.00;;;2.60;94.20;;;;;;4988696;28;20509;-95
2021/03/28 01:35:44;;;;;;;8.15;2.08;;;2.60;94.20;;;;;;4987894;28;20446;-94
2021/03/28 01:38:44;;;;;;;9.90;2.10;;;2.70;94.20;;;;;;5005778;28;20422;-95
2021/03/28 01:42:04;;;;;;;5.00;1.80;;;2.70;94.20;;;;;;4964698;28;20410;-93
2021/03/28 01:45:13;;;;;;;8.18;1.88;;;2.70;94.30;;;;;;5006761;28;20416;-94
2021/03/28 01:48:25;;;;;;;11.32;2.67;;;2.70;94.40;;;;;;4978045;28;20507;-94
2021/03/28 01:51:30;;;;;;;8.80;1.90;;;2.60;94.60;;;;;;4991369;28;20418;-92
2021/03/28 01:58:10;;;;;;;9.90;1.92;;;2.60;94.70;;;;;;5009950;28;20417;-94
2021/03/28 02:01:09;;;;;;;7.45;2.17;;;2.60;95.20;;;;;;4974671;28;20481;-94
2021/03/28 02:03:53;;;;;;;7.00;2.00;;;2.60;95.00;;;;;;5008533;28;20457;-91
2021/03/28 02:07:10;;;;;;;8.50;2.00;;;2.60;95.30;;;;;;4991581;28;20509;-95
2021/03/28 02:10:43;;;;;;;7.70;2.15;;;2.60;95.20;;;;;;4985023;28;20533;-92
2021/03/28 02:13:31;;;;;;;10.00;2.28;;;2.60;95.40;;;;;;4988910;28;20428;-92
2021/03/28 02:16:29;;;;;;;7.22;2.15;;;2.60;95.60;;;;;;4987308;28;20425;-94
2021/03/28 02:19:42;;;;;;;10.48;2.00;;;2.80;95.60;;;;;;4989246;28;20430;-93
2021/03/28 02:22:45;;;;;;;7.95;1.95;;;2.50;95.70;;;;;;4991162;28;20424;-92
2021/03/28 02:25:57;;;;;;;7.47;1.83;;;2.50;95.60;;;;;;4988324;28;20420;-95
2021/03/28 02:29:33;;;;;;;8.60;2.10;;;2.60;95.80;;;;;;4964786;28;20428;-93
2021/03/28 02:33:08;;;;;;;9.82;2.05;;;2.60;95.70;;;;;;4992083;28;20460;-92
2021/03/28 02:36:20;;;;;;;8.15;2.10;;;2.60;96.20;;;;;;4936145;29;20403;-93
2021/03/28 02:40:00;;;;;;;9.30;2.13;;;2.60;96.30;;;;;;4941105;28;20443;-92
2021/03/28 02:43:37;;;;;;;10.30;2.40;;;2.60;95.90;;;;;;4913813;29;20490;-93
2021/03/28 02:46:38;;;;;;;9.52;2.40;;;2.60;96.00;;;;;;4901421;29;20455;-92
2021/03/28 02:49:56;;;;;;;9.45;2.22;;;2.40;96.40;;;;;;4902402;29;20466;-92
2021/03/28 02:53:38;;;;;;;11.73;2.28;;;2.40;96.70;;;;;;4841017;29;20418;-95
2021/03/28 02:56:47;;;;;;;7.90;2.15;;;2.90;96.80;;;;;;4837465;29;20503;-95
2021/03/28 02:59:42;;;;;;;11.50;2.25;;;2.40;96.90;;;;;;4838423;29;20430;-94
2021/03/28 03:03:05;;;;;;;12.57;2.67;;;2.20;97.30;;;;;;4836158;29;20435;-93
2021/03/28 03:06:13;;;;;;;6.72;1.98;;;2.20;97.40;;;;;;4814221;29;20484;-96
2021/03/28 03:09:05;;;;;;;8.77;2.35;;;2.30;97.40;;;;;;4873947;29;20954;-92
2021/03/28 03:12:06;;;;;;;6.43;2.10;;;1.50;97.60;;;;;;4869520;29;20442;-94
2021/03/28 03:14:46;;;;;;;6.22;2.08;;;2.10;98.10;;;;;;4867650;29;20441;-95
2021/03/28 03:17:37;;;;;;;9.23;2.13;;;2.20;98.20;;;;;;4867929;29;20493;-96
2021/03/28 03:20:27;;;;;;;10.50;1.98;;;2.20;98.20;;;;;;4868653;29;20441;-96
2021/03/28 03:23:12;;;;;;;11.57;2.60;;;2.30;97.80;;;;;;4869599;29;20889;-95
2021/03/28 03:26:07;;;;;;;10.77;2.20;;;2.20;97.90;;;;;;4869480;29;20460;-96
2021/03/28 03:29:07;;;;;;;9.50;2.03;;;1.30;98.30;;;;;;4868859;29;20450;-96
2021/03/28 03:32:03;;;;;;;8.43;2.10;;;2.30;98.50;;;;;;4925708;29;20837;-94
2021/03/28 03:34:50;;;;;;;12.00;2.30;;;2.50;97.90;;;;;;4931517;29;20424;-96
2021/03/28 03:37:33;;;;;;;11.37;2.07;;;2.40;97.70;;;;;;4947333;29;20634;-92
2021/03/28 03:40:28;;;;;;;7.67;2.10;;;2.10;98.40;;;;;;4930955;29;21020;-96
2021/03/28 03:43:01;;;;;;;13.23;2.67;;;2.30;98.60;;;;;;4929052;29;20518;-96
2021/03/28 03:46:07;;;;;;;10.02;2.20;;;2.20;98.70;;;;;;4944953;29;20451;-96
2021/03/28 03:49:10;;;;;;;8.40;2.00;;;2.20;99.30;;;;;;4927887;29;20499;-96
2021/03/28 03:51:45;;;;;;;11.55;1.95;;;1.80;99.50;;;;;;4929557;29;20435;-96
2021/03/28 03:54:49;;;;;;;10.98;2.50;;;0.80;99.90;;;;;;4929988;29;20412;-96
2021/03/28 03:57:39;;;;;;;11.35;2.25;;;1.60;99.90;;;;;;4945930;29;20454;-93
2021/03/28 04:00:38;;;;;;;8.30;2.03;;;1.60;99.90;;;;;;4944398;29;20451;-93
2021/03/28 04:03:20;;;;;;;8.93;2.45;;;1.40;99.90;;;;;;4930076;29;20535;-96
2021/03/28 04:06:01;;;;;;;9.60;2.25;;;1.50;99.90;;;;;;4927147;29;20458;-96
2021/03/28 04:09:30;;;;;;;14.30;2.65;;;1.60;99.90;;;;;;4929481;29;20512;-96
2021/03/28 04:12:16;;;;;;;9.30;2.78;;;2.30;99.90;;;;;;4924135;29;20457;-92
2021/03/28 04:15:12;;;;;;;9.13;2.60;;;0.90;99.90;;;;;;4925660;29;20503;-95
2021/03/28 04:18:07;;;;;;;13.82;2.40;;;1.50;99.90;;;;;;4949867;29;20467;-96
2021/03/28 04:21:13;;;;;;;9.90;2.17;;;1.60;99.90;;;;;;4923633;29;20896;-96
2021/03/28 04:24:21;;;;;;;8.63;2.10;;;1.80;99.90;;;;;;4948843;28;20557;-92
2021/03/28 04:27:52;;;;;;;12.30;2.30;;;1.90;99.90;;;;;;4934890;29;20418;-91
2021/03/28 04:31:42;;;;;;;10.48;2.53;;;2.20;99.40;;;;;;4947547;29;20462;-91
2021/03/28 04:35:09;;;;;;;11.40;2.55;;;2.20;99.50;;;;;;4906406;29;20958;-92
2021/03/28 04:38:47;;;;;;;9.00;2.45;;;2.30;99.30;;;;;;4895736;29;20437;-95
2021/03/28 04:42:49;;;;;;;11.52;2.72;;;2.40;99.10;;;;;;4803544;29;20522;-92
2021/03/28 04:46:06;;;;;;;8.50;2.37;;;2.20;99.40;;;;;;4810322;29;20441;-92
2021/03/28 04:49:17;;;;;;;10.00;2.50;;;2.30;99.10;;;;;;4830402;29;20498;-96
2021/03/28 04:52:14;;;;;;;10.05;2.42;;;2.20;99.40;;;;;;4828251;29;20448;-96
2021/03/28 04:55:06;;;;;;;11.82;2.25;;;2.30;99.20;;;;;;4836264;29;20471;-95
2021/03/28 04:58:33;;;;;;;10.18;2.38;;;2.40;99.00;;;;;;4833976;29;20464;-93
2021/03/28 05:01:28;;;;;;;13.10;2.17;;;2.40;98.80;;;;;;4815911;29;20448;-92
2021/03/28 05:04:07;;;;;;;9.35;2.45;;;2.40;98.90;;;;;;4816353;29;20448;-95
2021/03/28 05:07:11;;;;;;;8.02;2.15;;;2.40;98.70;;;;;;4828161;29;20521;-96
2021/03/28 05:09:51;;;;;;;11.25;2.20;;;2.50;98.70;;;;;;4866187;29;20517;-93
2021/03/28 05:12:34;;;;;;;10.13;2.47;;;2.50;98.50;;;;;;4851021;29;20574;-91
2021/03/28 05:15:50;;;;;;;8.98;2.17;;;2.40;98.70;;;;;;4856033;29;20958;-93
2021/03/28 05:18:41;;;;;;;12.45;4.00;;;2.60;98.50;;;;;;4856197;29;20795;-95
2021/03/28 05:21:46;;;;;;;11.75;2.78;;;2.50;98.40;;;;;;4854734;29;20490;-92
2021/03/28 05:24:50;;;;;;;9.32;2.30;;;2.50;98.30;;;;;;4866197;29;20437;-94
2021/03/28 05:32:05;;;;;;;18.03;3.90;;;2.70;98.00;;;;;;4837721;29;20457;-94
2021/03/28 05:40:41;;;;;;;10.07;2.70;;;2.70;97.80;;;;;;5167597;23;20449;-93
2021/03/28 05:43:27;;;;;;;14.02;2.45;;;2.70;97.80;;;;;;5007286;28;20585;-95
2021/03/28 05:46:26;;;;;;;10.25;2.40;;;2.80;97.50;;;;;;5010224;28;20434;-96
2021/03/28 05:54:58;;;;;;;12.15;2.45;;;3.00;97.10;;;;;;5045880;28;20466;-87
2021/03/28 05:57:51;;;;;;;11.93;2.53;;;2.90;97.20;;;;;;5025290;28;20419;-90
2021/03/28 06:00:46;;;;;;;11.85;2.47;;;3.00;96.80;;;;;;5022540;28;20831;-90
2021/03/28 06:03:31;;;;;;;7.95;2.15;;;3.00;97.00;;;;;;5021954;28;20422;-90
2021/03/28 06:06:48;;;;;;;12.55;2.47;;;3.00;96.70;;;;;;5052982;28;20422;-96
2021/03/28 06:12:47;;;;;;;13.88;2.67;;;3.20;96.30;;;;;;5200432;22;20512;-96
2021/03/28 06:15:39;;;;;;;10.23;2.60;;;3.30;96.60;;;;;;5028567;28;20486;-93
2021/03/28 06:18:38;;;;;;;8.23;2.13;;;3.40;95.80;;;;;;5029731;28;20421;-91
2021/03/28 06:21:23;;;;;;;13.00;2.80;;;3.50;95.40;;;;;;5027039;28;20416;-91
2021/03/28 06:24:35;;;;;;;10.25;2.20;;;3.50;95.10;;;;;;5046072;28;20466;-91
2021/03/28 06:27:33;;;;;;;8.35;2.00;;;3.50;95.10;;;;;;4930650;29;20431;-91
2021/03/28 06:30:28;;;;;;;9.00;2.40;;;3.60;95.10;;;;;;5027147;28;20771;-92
2021/03/28 06:33:23;;;;;;;15.57;2.50;;;3.70;95.10;;;;;;5027992;28;20423;-93
2021/03/28 06:36:08;;;;;;;12.35;2.45;;;3.60;95.20;;;;;;5027181;28;20434;-92
2021/03/28 06:39:41;;;;;;;13.82;2.58;;;3.70;95.50;;;;;;5044573;28;20541;-91
2021/03/28 06:42:49;;;;;;;8.67;2.27;;;3.80;95.40;;;;;;5045186;28;20431;-91
2021/03/28 06:45:34;;;;;;;12.13;2.27;;;3.80;95.20;;;;;;5025266;28;20411;-91
2021/03/28 06:48:27;;;;;;;10.77;2.72;;;3.80;94.90;;;;;;5026238;28;20457;-92
2021/03/28 06:51:31;;;;;;;11.40;2.40;;;3.90;95.50;;;;;;5029025;28;20550;-92
2021/03/28 06:54:21;;;;;;;11.93;2.75;;;4.10;94.30;;;;;;5042153;28;20534;-92
2021/03/28 06:56:49;;;;;;;13.03;3.50;;;4.10;94.80;;;;;;5025050;28;20610;-92
2021/03/28 06:59:58;;;;;;;12.02;2.60;;;4.10;94.80;;;;;;5025452;28;20930;-91
2021/03/28 07:02:45;;;;;;;13.95;3.35;;;4.40;94.40;;;;;;5023234;28;20463;-92
2021/03/28 07:05:31;;;;;;;11.93;4.30;;;4.60;93.00;;;;;;5024591;28;20423;-92
2021/03/28 07:08:16;;;;;;;10.80;2.80;;;4.70;93.10;;;;;;5025724;28;20485;-91
2021/03/28 07:11:41;;;;;;;10.55;2.25;;;5.00;92.10;;;;;;5023822;28;20451;-92
2021/03/28 07:14:52;;;;;;;9.18;2.38;;;5.10;91.70;;;;;;4949997;29;20506;-93
2021/03/28 07:17:39;;;;;;;12.23;2.90;;;5.00;92.00;;;;;;4923380;29;20429;-90
2021/03/28 07:20:22;;;;;;;12.32;3.00;;;4.80;92.00;;;;;;4924499;29;20497;-92
2021/03/28 07:23:10;;;;;;;13.50;4.40;;;4.60;92.90;;;;;;4925525;29;20437;-92
2021/03/28 07:26:13;;;;;;;14.63;3.33;;;4.70;94.00;;;;;;4925447;29;20473;-91
2021/03/28 07:29:28;;;;;;;11.93;3.17;;;5.00;92.90;;;;;;4924359;29;20428;-91
2021/03/28 07:32:27;;;;;;;13.10;3.17;;;5.60;91.10;;;;;;4919266;29;20429;-90
2021/03/28 07:35:46;;;;;;;14.25;3.13;;;5.90;91.00;;;;;;4919546;29;20523;-88
2021/03/28 07:38:55;;;;;;;13.52;3.63;;;6.20;90.10;;;;;;4923246;29;20417;-91
2021/03/28 07:41:40;;;;;;;13.38;3.63;;;6.50;88.20;;;;;;4925342;29;20448;-92
2021/03/28 07:44:45;;;;;;;10.02;3.00;;;7.20;84.40;;;;;;4925277;29;20431;-92
2021/03/28 07:47:18;;;;;;;12.18;2.85;;;7.50;81.30;;;;;;4922843;29;20445;-92
2021/03/28 07:50:21;;;;;;;10.20;2.50;;;7.70;81.40;;;;;;4942887;29;20439;-92
2021/03/28 07:53:35;;;;;;;13.20;2.40;;;7.90;76.90;;;;;;4984733;28;20420;-92
2021/03/28 07:56:52;;;;;;;10.43;2.65;;;8.00;75.80;;;;;;4999795;28;20417;-91
2021/03/28 07:59:29;;;;;;;10.60;2.45;;;8.20;75.30;;;;;;5022500;28;20425;-91
2021/03/28 08:02:49;;;;;;;8.80;2.30;;;8.30;74.90;;;;;;5020398;28;20521;-91
2021/03/28 08:05:49;;;;;;;10.27;2.80;;;8.20;76.10;;;;;;5022054;28;20487;-92
2021/03/28 08:08:30;;;;;;;9.68;2.78;;;8.50;76.30;;;;;;5023420;28;20441;-92
2021/03/28 08:11:48;;;;;;;12.00;2.78;;;8.50;75.00;;;;;;5032465;28;20446;-92
2021/03/28 08:14:39;;;;;;;7.00;2.35;;;8.90;72.70;;;;;;5042685;28;20445;-92
2021/03/28 08:17:30;;;;;;;9.48;2.88;;;9.60;69.90;;;;;;5041898;28;20437;-90
2021/03/28 08:20:14;;;;;;;13.32;2.55;;;10.10;67.00;;;;;;5043786;28;20422;-89
2021/03/28 08:23:06;;;;;;;8.02;2.50;;;9.80;65.60;;;;;;5026345;28;20411;-91
2021/03/28 08:26:09;;;;;;;9.45;2.42;;;10.10;66.60;;;;;;5026220;28;20891;-93
2021/03/28 08:29:27;;;;;;;10.43;2.50;;;9.80;65.10;;;;;;5027622;28;20425;-92
2021/03/28 08:32:15;;;;;;;11.10;2.17;;;9.80;64.80;;;;;;5023334;28;20434;-91
2021/03/28 08:35:20;;;;;;;10.23;2.35;;;9.80;63.10;;;;;;5024615;28;20918;-91
2021/03/28 08:38:27;;;;;;;8.70;2.38;;;9.60;64.00;;;;;;5024885;28;20415;-92
2021/03/28 08:41:16;;;;;;;13.13;2.80;;;9.10;65.70;;;;;;5024973;28;20752;-92
2021/03/28 08:44:22;;;;;;;14.05;2.88;;;8.50;65.70;;;;;;5025639;28;20476;-92
2021/03/28 08:47:31;;;;;;;10.77;2.38;;;7.60;71.10;;;;;;5025411;28;20415;-92
2021/03/28 08:50:17;;;;;;;18.17;4.13;;;7.50;70.00;;;;;;5024912;28;20431;-92
2021/03/28 08:53:24;;;;;;;15.48;3.17;;;7.10;72.60;;;;;;5043196;28;20419;-91
2021/03/28 08:56:10;;;;;;;10.65;2.47;;;6.60;72.70;;;;;;5022741;28;20419;-93
2021/03/28 08:59:12;;;;;;;12.80;3.40;;;6.50;73.20;;;;;;5026761;28;20473;-92
2021/03/28 09:02:32;;;;;;;10.88;2.55;;;6.50;76.50;;;;;;5041742;28;20623;-92
2021/03/28 09:05:52;;;;;;;7.85;2.17;;;7.10;74.70;;;;;;4926658;29;20427;-92
2021/03/28 09:08:55;;;;;;;11.82;2.55;;;7.10;76.60;;;;;;4869511;29;20980;-92
2021/03/28 09:12:14;;;;;;;10.63;2.67;;;7.30;76.20;;;;;;4868562;29;20546;-91
2021/03/28 09:15:02;;;;;;;9.03;2.23;;;7.60;76.70;;;;;;4866880;29;20445;-90
2021/03/28 09:17:57;;;;;;;11.63;2.58;;;8.00;72.00;;;;;;4851833;29;20811;-92
2021/03/28 09:20:53;;;;;;;10.75;2.50;;;7.90;72.00;;;;;;4868381;29;20445;-91
2021/03/28 09:23:42;;;;;;;4.87;1.77;;;7.60;73.80;;;;;;4854767;29;20464;-93
2021/03/28 09:26:47;;;;;;;9.68;2.50;;;7.30;74.80;;;;;;4868313;29;20478;-93
2021/03/28 09:29:47;;;;;;;11.00;2.83;;;7.30;74.50;;;;;;4867972;29;20461;-90
2021/03/28 09:32:39;;;;;;;11.82;2.75;;;7.70;74.70;;;;;;4852273;29;21042;-92
2021/03/28 09:35:36;;;;;;;7.97;2.53;;;7.80;73.20;;;;;;4850751;29;20439;-92
2021/03/28 09:38:31;;;;;;;6.95;2.40;;;7.80;74.80;;;;;;4865962;29;20442;-91
2021/03/28 09:41:21;;;;;;;9.98;2.67;;;7.60;72.90;;;;;;4910397;29;20433;-92
2021/03/28 09:44:31;;;;;;;6.13;1.80;;;7.80;73.00;;;;;;4939759;28;20428;-92
2021/03/28 09:47:54;;;;;;;14.13;3.00;;;7.80;73.80;;;;;;5022194;28;21009;-92
2021/03/28 09:50:55;;;;;;;8.07;2.50;;;7.90;73.70;;;;;;5025603;28;20439;-92
2021/03/28 09:54:44;;;;;;;9.07;2.27;;;8.20;72.70;;;;;;5041917;28;20407;-96
2021/03/28 09:57:49;;;;;;;8.73;2.58;;;8.20;72.50;;;;;;5027610;28;20427;-92
2021/03/28 10:00:42;;;;;;;11.73;3.67;;;8.20;74.20;;;;;;5023851;28;20497;-95
2021/03/28 10:03:36;;;;;;;12.95;3.03;;;8.20;73.30;;;;;;5025425;28;20411;-94
2021/03/28 10:06:19;;;;;;;10.18;3.20;;;7.80;74.10;;;;;;5026955;28;20411;-93
2021/03/28 10:08:58;;;;;;;10.75;3.00;;;8.30;74.90;;;;;;5024132;28;20407;-92
2021/03/28 10:11:50;;;;;;;9.95;2.50;;;7.90;75.40;;;;;;5040617;28;20457;-94
2021/03/28 10:15:04;;;;;;;8.07;2.38;;;8.10;77.20;;;;;;5042541;28;20418;-93
2021/03/28 10:18:24;;;;;;;11.95;2.80;;;8.20;74.10;;;;;;5025992;28;20430;-91
2021/03/28 10:21:16;;;;;;;10.18;2.40;;;8.30;71.60;;;;;;5027591;28;20395;-92
2021/03/28 10:24:18;;;;;;;7.35;2.33;;;8.40;70.50;;;;;;5044002;28;20406;-93
2021/03/28 10:27:30;;;;;;;6.88;2.00;;;8.50;69.50;;;;;;5042113;28;20416;-92
2021/03/28 10:30:35;;;;;;;6.53;1.92;;;8.40;63.90;;;;;;5021943;28;20435;-91
2021/03/28 10:33:21;;;;;;;9.00;2.40;;;8.10;64.20;;;;;;4972714;28;20446;-91
2021/03/28 10:36:05;;;;;;;9.30;2.10;;;8.00;61.70;;;;;;5028017;28;20533;-91
2021/03/28 10:39:13;;;;;;;6.93;2.10;;;8.20;65.20;;;;;;5026702;28;20431;-92
2021/03/28 10:41:58;;;;;;;6.60;2.10;;;8.40;63.50;;;;;;5026363;28;20431;-96
2021/03/28 10:45:11;;;;;;;7.43;2.03;;;8.90;62.20;;;;;;5045229;28;20417;-93
2021/03/28 10:48:45;;;;;;;8.60;2.22;;;9.20;60.20;;;;;;5047217;28;20415;-96
2021/03/28 10:52:21;;;;;;;5.60;1.73;;;8.90;58.00;;;;;;4948909;29;20884;-92
2021/03/28 10:55:26;;;;;;;4.88;1.85;;;8.70;58.30;;;;;;4932055;29;20435;-90
2021/03/28 10:58:33;;;;;;;5.60;1.73;;;8.20;60.20;;;;;;4947379;29;20431;-91
2021/03/28 11:01:59;;;;;;;6.13;2.10;;;8.30;59.20;;;;;;4941882;29;20431;-90
2021/03/28 11:05:19;;;;;;;7.25;2.03;;;8.30;60.40;;;;;;4934057;29;20970;-92
2021/03/28 11:08:56;;;;;;;8.32;2.63;;;8.40;60.40;;;;;;4937153;28;20496;-91
2021/03/28 11:15:03;;;;;;;8.95;2.35;;;8.40;61.00;;;;;;5121623;23;20514;-92
2021/03/28 11:18:38;;;;;;;6.30;1.90;;;8.40;62.60;;;;;;5045896;28;20429;-92
2021/03/28 11:22:13;;;;;;;9.80;2.10;;;8.40;60.10;;;;;;5039214;28;20447;-91
2021/03/28 11:25:29;;;;;;;5.05;2.03;;;8.40;60.80;;;;;;5046961;28;20438;-92
2021/03/28 11:31:32;;;;;;;7.65;2.17;;;8.60;60.90;;;;;;4946560;29;20435;-92
2021/03/28 11:34:53;;;;;;;9.75;2.15;;;8.20;60.30;;;;;;4949004;28;20435;-92
2021/03/28 11:38:21;;;;;;;7.75;2.50;;;7.60;63.50;;;;;;4947493;29;20428;-92
2021/03/28 11:41:43;;;;;;;8.63;2.70;;;7.50;64.20;;;;;;4962244;29;20430;-92
2021/03/28 11:44:32;;;;;;;8.05;2.25;;;7.60;64.50;;;;;;4931978;29;20469;-92
2021/03/28 11:47:55;;;;;;;6.80;2.75;;;8.00;64.80;;;;;;4946988;29;20411;-92
2021/03/28 11:51:23;;;;;;;6.65;2.72;;;8.20;62.90;;;;;;4943410;28;20511;-92
2021/03/28 11:54:10;;;;;;;8.63;2.70;;;8.40;61.40;;;;;;4947702;29;20815;-92
2021/03/28 11:56:57;;;;;;;5.75;2.50;;;8.80;63.30;;;;;;4930488;29;20428;-91
2021/03/28 12:00:37;;;;;;;5.40;1.95;;;9.30;60.40;;;;;;4933296;29;20962;-93
2021/03/28 12:03:34;;;;;;;6.60;2.67;;;9.20;60.40;;;;;;4852558;29;20515;-92
2021/03/28 12:06:53;;;;;;;6.03;2.43;;;8.80;60.90;;;;;;4884782;29;20425;-96
2021/03/28 12:09:31;;;;;;;7.82;2.25;;;9.20;61.60;;;;;;4892596;29;20433;-96
2021/03/28 12:12:44;;;;;;;6.18;2.22;;;10.00;60.80;;;;;;5031725;23;20435;-94
2021/03/28 12:15:45;;;;;;;7.97;2.33;;;9.90;56.60;;;;;;5000337;28;20434;-96
2021/03/28 12:18:33;;;;;;;7.50;2.50;;;9.10;60.50;;;;;;5049505;28;20450;-96
2021/03/28 12:24:25;;;;;;;8.60;3.27;;;8.60;62.30;;;;;;5353339;22;21234;-96
2021/03/28 12:27:39;;;;;;;7.38;2.40;;;7.90;60.90;;;;;;4988524;28;20420;-94
2021/03/28 12:30:33;;;;;;;6.47;2.30;;;9.50;58.10;;;;;;4989748;28;20443;-95
2021/03/28 12:33:48;;;;;;;7.55;2.40;;;10.00;59.60;;;;;;4990785;28;20423;-96
2021/03/28 12:36:46;;;;;;;10.25;2.90;;;10.60;57.10;;;;;;4985502;28;20438;-96
2021/03/28 12:39:18;;;;;;;12.23;3.60;;;11.30;54.20;;;;;;4982054;28;20439;-96
2021/03/28 12:42:04;;;;;;;10.50;3.55;;;12.10;54.50;;;;;;4980043;28;20416;-94
2021/03/28 12:44:37;;;;;;;9.38;3.05;;;12.30;51.10;;;;;;4982176;28;20491;-96
2021/03/28 12:47:22;;;;;;;6.57;2.25;;;12.70;53.60;;;;;;4982192;28;20515;-94
2021/03/28 12:49:55;;;;;;;9.18;2.65;;;12.60;50.60;;;;;;4979142;28;20507;-93
2021/03/28 12:52:46;;;;;;;6.88;2.30;;;12.40;50.10;;;;;;4982914;28;20431;-96
2021/03/28 12:55:18;;;;;;;6.23;2.00;;;11.90;49.20;;;;;;4981841;28;20427;-95
2021/03/28 12:57:52;;;;;;;7.90;2.83;;;11.80;51.40;;;;;;4982335;28;21047;-96
2021/03/28 13:00:39;;;;;;;8.10;2.60;;;12.30;52.00;;;;;;4979066;28;20448;-94
2021/03/28 13:03:19;;;;;;;7.22;2.28;;;13.20;50.40;;;;;;4989380;28;20420;-94
2021/03/28 13:06:04;;;;;;;7.40;2.38;;;13.10;47.90;;;;;;4979694;28;20416;-91
2021/03/28 13:08:54;;;;;;;7.10;2.70;;;12.80;49.30;;;;;;4980829;28;20479;-93
2021/03/28 13:11:34;;;;;;;4.25;1.90;;;12.70;49.40;;;;;;4965600;28;20444;-92
2021/03/28 13:14:02;;;;;;;7.88;2.20;;;12.50;47.60;;;;;;4982184;28;20435;-96
2021/03/28 13:16:33;;;;;;;5.45;2.03;;;12.70;48.30;;;;;;4983912;28;20487;-94
2021/03/28 13:19:03;;;;;;;6.85;2.60;;;13.60;49.20;;;;;;4981963;28;20443;-92
2021/03/28 13:21:36;;;;;;;7.47;2.60;;;13.70;47.70;;;;;;4990111;28;20410;-94
2021/03/28 13:24:17;;;;;;;8.38;2.35;;;13.50;46.40;;;;;;5003259;28;20414;-95
2021/03/28 13:27:09;;;;;;;6.78;2.63;;;13.90;48.40;;;;;;4976683;28;20483;-92
2021/03/28 13:29:49;;;;;;;6.03;2.38;;;14.90;46.30;;;;;;4973688;28;20428;-92
2021/03/28 13:32:38;;;;;;;7.28;2.72;;;14.90;44.80;;;;;;4973579;28;20427;-91
2021/03/28 13:35:24;;;;;;;5.47;2.38;;;15.20;44.00;;;;;;4979258;28;20521;-95
2021/03/28 13:37:54;;;;;;;8.32;2.60;;;14.70;44.80;;;;;;4982191;28;20442;-96
2021/03/28 13:40:25;;;;;;;7.45;2.20;;;14.60;44.50;;;;;;4975934;28;20479;-93
2021/03/28 13:42:58;;;;;;;9.23;2.23;;;14.60;43.90;;;;;;4981025;28;20412;-92
2021/03/28 13:45:51;;;;;;;5.50;2.13;;;14.50;43.20;;;;;;4981259;28;20443;-92
2021/03/28 13:48:18;;;;;;;6.45;2.20;;;13.90;44.00;;;;;;4978107;28;20462;-94
2021/03/28 13:51:13;;;;;;;5.25;2.03;;;13.80;43.90;;;;;;4976896;28;20439;-96
2021/03/28 13:53:46;;;;;;;5.35;2.10;;;13.60;46.20;;;;;;4979869;28;20435;-92
2021/03/28 13:56:22;;;;;;;7.93;2.20;;;13.70;44.00;;;;;;4977112;28;20435;-93
2021/03/28 13:59:06;;;;;;;7.50;2.10;;;13.80;44.70;;;;;;4978465;28;20776;-95
2021/03/28 14:01:42;;;;;;;6.47;2.10;;;14.00;44.80;;;;;;4992919;28;20489;-93
2021/03/28 14:04:27;;;;;;;5.38;2.03;;;13.90;43.80;;;;;;4977613;28;20432;-93
2021/03/28 14:07:16;;;;;;;5.53;2.05;;;13.90;45.00;;;;;;4978329;28;20435;-92
2021/03/28 14:09:55;;;;;;;7.38;2.78;;;13.70;45.60;;;;;;4980093;28;20466;-92
2021/03/28 14:12:54;;;;;;;6.28;2.63;;;13.20;45.40;;;;;;4976456;28;20428;-96
2021/03/28 14:15:26;;;;;;;8.13;2.45;;;12.30;48.20;;;;;;4979324;28;20435;-92
2021/03/28 14:18:08;;;;;;;8.03;2.40;;;11.90;48.60;;;;;;4981520;28;20423;-91
2021/03/28 14:20:47;;;;;;;8.50;2.50;;;11.80;50.70;;;;;;4979532;28;20423;-96
2021/03/28 14:23:19;;;;;;;7.85;2.65;;;12.10;48.50;;;;;;4980808;28;20424;-93
2021/03/28 14:25:51;;;;;;;8.15;2.45;;;12.60;49.20;;;;;;4993961;28;20433;-94
2021/03/28 14:28:27;;;;;;;8.45;2.40;;;12.60;48.70;;;;;;5001716;28;20436;-93
2021/03/28 14:31:09;;;;;;;6.18;2.20;;;12.50;49.60;;;;;;5014508;28;20937;-91
2021/03/28 14:33:58;;;;;;;6.40;2.30;;;12.20;48.40;;;;;;5014875;28;20442;-92
2021/03/28 14:37:02;;;;;;;5.37;2.00;;;11.70;50.50;;;;;;5014267;28;20434;-94
2021/03/28 14:39:32;;;;;;;7.18;2.60;;;11.50;50.50;;;;;;5015579;28;20490;-93
2021/03/28 14:42:19;;;;;;;7.55;2.08;;;12.00;50.20;;;;;;4998917;28;20445;-92
2021/03/28 14:44:58;;;;;;;6.70;2.40;;;12.50;48.80;;;;;;4998958;28;20423;-95
2021/03/28 14:47:59;;;;;;;7.32;2.53;;;12.70;47.30;;;;;;5017579;28;20469;-92
2021/03/28 14:50:42;;;;;;;7.43;2.50;;;12.70;48.20;;;;;;4999549;28;20446;-95
2021/03/28 14:53:36;;;;;;;10.63;2.50;;;12.90;48.80;;;;;;4998460;28;20430;-92
2021/03/28 14:56:28;;;;;;;5.57;2.20;;;13.60;47.00;;;;;;4997805;28;20438;-88
2021/03/28 14:59:12;;;;;;;8.23;2.10;;;13.20;46.60;;;;;;5014503;28;20431;-93
2021/03/28 15:02:05;;;;;;;8.60;3.25;;;13.10;46.80;;;;;;5016073;28;20414;-93
2021/03/28 15:04:38;;;;;;;6.60;2.13;;;13.30;45.90;;;;;;4986719;28;20786;-95
2021/03/28 15:07:13;;;;;;;4.82;1.92;;;13.60;46.70;;;;;;5013744;28;20414;-94
2021/03/28 15:09:53;;;;;;;7.05;2.40;;;13.60;45.60;;;;;;4999899;28;20630;-93
2021/03/28 15:13:05;;;;;;;12.32;3.67;;;13.50;46.50;;;;;;5006298;28;20430;-96
2021/03/28 15:15:47;;;;;;;8.47;2.37;;;13.00;47.70;;;;;;4997203;28;20450;-95
2021/03/28 15:18:32;;;;;;;8.10;2.17;;;13.50;45.90;;;;;;4996941;28;20431;-95
2021/03/28 15:21:07;;;;;;;7.85;3.08;;;13.20;46.70;;;;;;5012267;28;20472;-93
2021/03/28 15:23:41;;;;;;;6.35;2.30;;;13.50;48.60;;;;;;4996450;28;20471;-95
2021/03/28 15:26:08;;;;;;;5.82;2.38;;;13.70;44.90;;;;;;5000964;28;20434;-96
2021/03/28 15:28:41;;;;;;;7.23;2.23;;;13.60;46.70;;;;;;5000034;28;20509;-96
2021/03/28 15:31:26;;;;;;;5.90;2.25;;;13.30;46.50;;;;;;5000637;28;20438;-95
2021/03/28 15:34:27;;;;;;;8.07;2.20;;;13.30;45.60;;;;;;5024399;28;20423;-96
2021/03/28 15:37:21;;;;;;;8.45;2.50;;;13.30;46.50;;;;;;5009332;28;20437;-96
2021/03/28 15:40:13;;;;;;;5.87;2.13;;;13.40;45.90;;;;;;5000317;28;20505;-96
2021/03/28 15:42:54;;;;;;;6.45;2.30;;;13.40;45.20;;;;;;4999055;28;20433;-96
2021/03/28 15:45:26;;;;;;;5.43;2.00;;;13.50;45.40;;;;;;5001576;28;20501;-96
2021/03/28 15:48:20;;;;;;;8.00;2.25;;;12.00;44.50;;;;;;5004111;28;20431;-96
2021/03/28 15:51:10;;;;;;;6.53;2.30;;;13.00;45.60;;;;;;5024556;28;20553;-96
2021/03/28 15:53:48;;;;;;;7.13;2.28;;;13.10;46.80;;;;;;5005735;28;20426;-96
2021/03/28 15:56:49;;;;;;;8.67;2.50;;;13.10;46.70;;;;;;5020914;28;20414;-93